Time;durP1;ratioP1;P1;durP2;ratioP2;P2;SDS_P1;SDS_P2;PMS_P1;PMS_P2;Temp;Humidity;BMP_temperature;BMP_pressure;BME280_temperature;BME280_humidity;BME280_pressure;Samples;Min_cycle;Max_cycle;Signal;HPM_P1;HPM_P2
2022/08/16 00:02:10;;;;;;;9.10;6.90;;;;;;;;;;107857;1305;23103;-24
2022/08/16 00:04:36;;;;;;;7.40;6.40;;;;;;;;;;108151;1311;22616;-28
2022/08/16 00:07:01;;;;;;;8.50;7.70;;;;;;;;;;107787;1298;22578;-28
2022/08/16 00:09:27;;;;;;;8.50;7.00;;;;;;;;;;107504;1305;1002941;-24
2022/08/16 00:11:53;;;;;;;9.10;7.60;;;;;;;;;;108164;1304;22550;-24
2022/08/16 00:14:19;;;;;;;10.40;8.60;;;;;;;;;;108149;1304;23216;-27
2022/08/16 00:16:45;;;;;;;9.80;8.70;;;;;;;;;;108195;1311;22436;-24
2022/08/16 00:19:11;;;;;;;9.10;7.90;;;;;;;;;;108146;1304;22464;-24
2022/08/16 00:21:37;;;;;;;12.10;8.10;;;;;;;;;;108157;1304;23216;-28
2022/08/16 00:24:03;;;;;;;10.80;8.60;;;;;;;;;;108187;1304;23006;-24
2022/08/16 00:26:28;;;;;;;9.80;7.90;;;;;;;;;;108194;1304;22545;-24
2022/08/16 00:28:54;;;;;;;10.50;8.70;;;;;;;;;;108149;1304;22527;-28
2022/08/16 00:31:19;;;;;;;12.10;9.50;;;;;;;;;;108101;1304;22551;-28
2022/08/16 00:33:44;;;;;;;8.50;7.60;;;;;;;;;;108130;1304;23361;-24
2022/08/16 00:36:10;;;;;;;10.80;7.20;;;;;;;;;;108110;1305;23214;-24
2022/08/16 00:38:36;;;;;;;10.00;7.80;;;;;;;;;;108222;1304;23121;-28
2022/08/16 00:41:01;;;;;;;7.10;6.30;;;;;;;;;;107955;1304;22833;-28
2022/08/16 00:43:28;;;;;;;7.30;6.40;;;;;;;;;;107898;1296;23055;-28
2022/08/16 00:45:57;;;;;;;12.70;10.30;;;;;;;;;;108110;1304;22543;-28
2022/08/16 00:48:22;;;;;;;9.70;7.00;;;;;;;;;;108108;1311;23296;-24
2022/08/16 00:50:48;;;;;;;10.70;8.80;;;;;;;;;;108045;1311;22546;-25
2022/08/16 00:53:14;;;;;;;9.30;8.10;;;;;;;;;;108154;1305;22299;-28
2022/08/16 00:55:41;;;;;;;8.80;7.20;;;;;;;;;;108162;1304;23152;-27
2022/08/16 00:58:08;;;;;;;10.40;8.80;;;;;;;;;;108170;1305;22419;-26
2022/08/16 01:00:33;;;;;;;8.30;7.10;;;;;;;;;;108142;1304;23235;-30
2022/08/16 01:02:59;;;;;;;8.00;7.00;;;;;;;;;;108142;1304;23209;-26
2022/08/16 01:05:26;;;;;;;9.50;8.70;;;;;;;;;;108165;1304;23630;-26
2022/08/16 01:07:52;;;;;;;13.30;9.80;;;;;;;;;;108188;1304;22541;-30
2022/08/16 01:10:20;;;;;;;14.20;8.50;;;;;;;;;;108100;1309;22570;-28
2022/08/16 01:12:46;;;;;;;9.90;8.80;;;;;;;;;;108249;1302;25280;-30
2022/08/16 01:15:13;;;;;;;10.40;8.40;;;;;;;;;;107597;1302;23333;-30
2022/08/16 01:17:38;;;;;;;8.60;7.80;;;;;;;;;;108258;1302;22933;-23
2022/08/16 01:20:05;;;;;;;7.90;6.20;;;;;;;;;;108260;1301;22556;-26
2022/08/16 01:22:33;;;;;;;10.90;7.90;;;;;;;;;;108251;1302;23210;-26
2022/08/16 01:25:00;;;;;;;7.00;6.20;;;;;;;;;;108281;1302;22810;-30
2022/08/16 01:27:27;;;;;;;8.00;6.10;;;;;;;;;;108249;1302;22560;-30
2022/08/16 01:29:54;;;;;;;14.20;9.20;;;;;;;;;;108267;1302;22565;-26
2022/08/16 01:32:19;;;;;;;13.80;9.90;;;;;;;;;;108322;1301;22499;-26
2022/08/16 01:34:45;;;;;;;10.80;9.30;;;;;;;;;;108264;1309;22523;-26
2022/08/16 01:37:10;;;;;;;11.80;10.60;;;;;;;;;;108286;1302;22706;-30
2022/08/16 01:39:36;;;;;;;9.60;8.50;;;;;;;;;;107892;1309;22540;-30
2022/08/16 01:42:03;;;;;;;13.30;9.10;;;;;;;;;;108335;1301;23769;-30
2022/08/16 01:44:28;;;;;;;10.30;9.20;;;;;;;;;;108280;1302;23210;-26
2022/08/16 01:46:56;;;;;;;13.50;10.10;;;;;;;;;;108265;1301;23186;-30
2022/08/16 01:49:21;;;;;;;9.00;7.70;;;;;;;;;;108087;1309;23117;-30
2022/08/16 01:51:49;;;;;;;8.50;7.60;;;;;;;;;;108271;1302;23636;-30
2022/08/16 01:54:14;;;;;;;12.30;8.80;;;;;;;;;;108320;1301;22587;-26
2022/08/16 01:56:40;;;;;;;10.20;9.20;;;;;;;;;;108237;1309;23206;-30
2022/08/16 01:59:07;;;;;;;12.30;9.90;;;;;;;;;;108270;1302;22540;-26
2022/08/16 02:01:33;;;;;;;19.10;17.40;;;;;;;;;;108275;1302;22491;-26
2022/08/16 02:03:59;;;;;;;31.50;27.10;;;;;;;;;;108303;1302;23119;-29
2022/08/16 02:06:24;;;;;;;18.30;16.40;;;;;;;;;;108322;1301;22615;-24
2022/08/16 02:08:53;;;;;;;13.50;11.00;;;;;;;;;;107724;1303;23294;-24
2022/08/16 02:11:19;;;;;;;8.80;7.90;;;;;;;;;;108179;1302;23333;-28
2022/08/16 02:13:45;;;;;;;40.30;36.60;;;;;;;;;;108263;1309;23281;-24
2022/08/16 02:16:11;;;;;;;23.70;21.30;;;;;;;;;;108296;1302;22543;-24
2022/08/16 02:18:37;;;;;;;36.10;31.20;;;;;;;;;;108279;1301;22408;-24
2022/08/16 02:21:02;;;;;;;41.50;31.40;;;;;;;;;;108238;1309;23379;-24
2022/08/16 02:23:28;;;;;;;35.90;31.80;;;;;;;;;;108289;1302;23341;-24
2022/08/16 02:25:53;;;;;;;48.80;43.60;;;;;;;;;;108318;1289;25094;-28
2022/08/16 02:28:19;;;;;;;42.30;36.20;;;;;;;;;;108281;1302;23059;-28
2022/08/16 02:30:44;;;;;;;81.90;73.40;;;;;;;;;;108276;1309;22542;-24
2022/08/16 02:33:10;;;;;;;17.80;16.00;;;;;;;;;;108294;1301;23474;-28
2022/08/16 02:35:35;;;;;;;15.80;14.00;;;;;;;;;;108279;1301;23153;-24
2022/08/16 02:38:01;;;;;;;29.70;26.60;;;;;;;;;;108263;1302;22592;-25
2022/08/16 02:40:26;;;;;;;52.60;46.60;;;;;;;;;;108264;1302;23149;-24
2022/08/16 02:42:53;;;;;;;13.40;11.70;;;;;;;;;;108284;1302;23347;-28
2022/08/16 02:45:19;;;;;;;27.00;23.80;;;;;;;;;;108290;1301;22659;-28
2022/08/16 02:47:44;;;;;;;24.60;20.90;;;;;;;;;;108284;1302;23196;-24
2022/08/16 02:50:10;;;;;;;17.10;11.50;;;;;;;;;;108318;1301;23189;-28
2022/08/16 02:52:35;;;;;;;22.70;18.20;;;;;;;;;;108282;1302;22533;-24
2022/08/16 02:55:00;;;;;;;11.20;10.10;;;;;;;;;;108297;1302;22619;-28
2022/08/16 02:57:26;;;;;;;12.20;10.20;;;;;;;;;;108170;1302;22543;-24
2022/08/16 02:59:52;;;;;;;9.20;8.30;;;;;;;;;;108205;1302;23266;-28
2022/08/16 03:02:17;;;;;;;10.40;9.30;;;;;;;;;;108302;1289;23604;-28
2022/08/16 03:04:43;;;;;;;15.60;11.00;;;;;;;;;;108009;1305;22937;-27
2022/08/16 03:07:10;;;;;;;14.10;11.40;;;;;;;;;;107970;1309;23401;-27
2022/08/16 03:09:36;;;;;;;10.40;9.30;;;;;;;;;;108290;1302;22543;-28
2022/08/16 03:12:01;;;;;;;13.50;9.40;;;;;;;;;;108267;1309;23171;-28
2022/08/16 03:14:27;;;;;;;12.60;10.30;;;;;;;;;;108315;1301;23165;-27
2022/08/16 03:16:54;;;;;;;16.60;10.40;;;;;;;;;;108322;1302;22378;-24
2022/08/16 03:19:20;;;;;;;17.10;8.10;;;;;;;;;;108281;1302;22448;-28
2022/08/16 03:21:45;;;;;;;10.00;8.00;;;;;;;;;;108309;1309;22559;-25
2022/08/16 03:24:11;;;;;;;11.50;8.40;;;;;;;;;;108140;1304;23249;-28
2022/08/16 03:26:36;;;;;;;9.90;7.90;;;;;;;;;;108213;1309;22541;-28
2022/08/16 03:29:02;;;;;;;10.10;8.80;;;;;;;;;;108107;1309;22206;-26
2022/08/16 03:31:27;;;;;;;12.90;9.80;;;;;;;;;;108277;1302;22536;-26
2022/08/16 03:33:53;;;;;;;16.30;8.30;;;;;;;;;;108290;1302;22415;-27
2022/08/16 03:36:19;;;;;;;14.30;9.80;;;;;;;;;;108241;1295;23214;-26
2022/08/16 03:38:45;;;;;;;10.20;8.60;;;;;;;;;;108108;1302;22526;-24
2022/08/16 03:41:10;;;;;;;11.50;8.60;;;;;;;;;;108190;1303;23152;-27
2022/08/16 03:43:36;;;;;;;10.00;8.50;;;;;;;;;;108313;1295;22553;-30
2022/08/16 03:46:01;;;;;;;12.10;8.80;;;;;;;;;;108309;1301;22064;-24
2022/08/16 03:48:28;;;;;;;9.10;7.20;;;;;;;;;;108292;1302;22516;-24
2022/08/16 03:50:53;;;;;;;8.90;7.60;;;;;;;;;;108309;1302;22546;-24
2022/08/16 03:53:19;;;;;;;10.40;8.20;;;;;;;;;;107967;1309;22569;-28
2022/08/16 03:55:44;;;;;;;10.40;8.10;;;;;;;;;;108255;1302;23090;-28
2022/08/16 03:58:10;;;;;;;12.80;9.30;;;;;;;;;;107583;1303;25230;-28
2022/08/16 04:00:35;;;;;;;12.90;8.80;;;;;;;;;;107240;1305;23240;-28
2022/08/16 04:03:05;;;;;;;10.60;9.40;;;;;;;;;;108252;1309;23165;-25
2022/08/16 04:05:32;;;;;;;9.30;7.50;;;;;;;;;;108293;1302;22936;-28
2022/08/16 04:07:57;;;;;;;12.60;10.00;;;;;;;;;;108257;1302;22555;-28
2022/08/16 04:10:23;;;;;;;11.80;8.90;;;;;;;;;;108164;1309;22652;-28
2022/08/16 04:12:48;;;;;;;8.50;7.10;;;;;;;;;;107955;1301;22598;-24
2022/08/16 04:15:16;;;;;;;13.50;8.20;;;;;;;;;;108256;1302;23254;-28
2022/08/16 04:17:41;;;;;;;8.40;7.40;;;;;;;;;;108283;1301;22546;-24
2022/08/16 04:20:07;;;;;;;13.50;8.60;;;;;;;;;;108297;1301;23174;-28
2022/08/16 04:22:33;;;;;;;10.40;9.20;;;;;;;;;;108288;1302;22585;-28
2022/08/16 04:24:59;;;;;;;14.00;9.20;;;;;;;;;;108204;1302;23154;-24
2022/08/16 04:27:24;;;;;;;10.80;8.90;;;;;;;;;;108279;1302;23229;-25
2022/08/16 04:29:50;;;;;;;12.40;8.60;;;;;;;;;;107269;1303;1002475;-27
2022/08/16 04:32:15;;;;;;;12.10;10.20;;;;;;;;;;108208;1289;23055;-24
2022/08/16 04:34:41;;;;;;;10.30;9.00;;;;;;;;;;108277;1302;22575;-28
2022/08/16 04:37:06;;;;;;;12.00;8.20;;;;;;;;;;108273;1301;22604;-28
2022/08/16 04:39:32;;;;;;;14.90;7.90;;;;;;;;;;108233;1309;23261;-30
2022/08/16 04:41:58;;;;;;;10.30;8.90;;;;;;;;;;108249;1309;22798;-25
2022/08/16 04:44:23;;;;;;;8.60;7.50;;;;;;;;;;108286;1301;22545;-27
2022/08/16 04:46:49;;;;;;;11.30;9.50;;;;;;;;;;108232;1309;23205;-25
2022/08/16 04:49:14;;;;;;;8.80;7.90;;;;;;;;;;108178;1302;23416;-28
2022/08/16 04:51:40;;;;;;;8.40;7.20;;;;;;;;;;108048;1309;22449;-24
2022/08/16 04:54:06;;;;;;;11.10;8.10;;;;;;;;;;108266;1309;22449;-25
2022/08/16 04:56:31;;;;;;;10.20;7.80;;;;;;;;;;108276;1302;22810;-25
2022/08/16 04:58:57;;;;;;;8.80;7.90;;;;;;;;;;108296;1302;22444;-28
2022/08/16 05:01:22;;;;;;;10.00;8.30;;;;;;;;;;108199;1309;22432;-29
2022/08/16 05:03:47;;;;;;;17.90;8.90;;;;;;;;;;108306;1301;22546;-25
2022/08/16 05:06:13;;;;;;;9.60;8.60;;;;;;;;;;108276;1301;22575;-29
2022/08/16 05:08:39;;;;;;;9.90;7.70;;;;;;;;;;108165;1309;22531;-29
2022/08/16 05:11:06;;;;;;;9.70;8.30;;;;;;;;;;108283;1301;23223;-25
2022/08/16 05:13:33;;;;;;;9.90;7.80;;;;;;;;;;108277;1302;23174;-29
2022/08/16 05:15:59;;;;;;;9.10;7.50;;;;;;;;;;108103;1304;23236;-28
2022/08/16 05:18:26;;;;;;;7.80;6.90;;;;;;;;;;108247;1286;23168;-29
2022/08/16 05:20:51;;;;;;;8.70;7.30;;;;;;;;;;108233;1305;22599;-24
2022/08/16 05:23:17;;;;;;;11.70;7.90;;;;;;;;;;108212;1302;22453;-28
2022/08/16 05:25:43;;;;;;;7.40;6.80;;;;;;;;;;108296;1309;22917;-26
2022/08/16 05:28:09;;;;;;;8.40;7.50;;;;;;;;;;107534;1302;1002508;-24
2022/08/16 05:30:35;;;;;;;8.90;8.10;;;;;;;;;;108264;1301;23208;-25
2022/08/16 05:33:01;;;;;;;10.20;7.80;;;;;;;;;;108319;1289;23193;-25
2022/08/16 05:35:27;;;;;;;8.90;8.10;;;;;;;;;;108207;1309;22541;-28
2022/08/16 05:37:52;;;;;;;11.90;8.40;;;;;;;;;;108280;1301;23344;-25
2022/08/16 05:40:18;;;;;;;7.10;6.50;;;;;;;;;;108145;1301;23299;-25
2022/08/16 05:42:43;;;;;;;7.80;6.10;;;;;;;;;;108145;1302;22518;-28
2022/08/16 05:45:09;;;;;;;8.90;6.90;;;;;;;;;;108151;1305;22452;-28
2022/08/16 05:47:35;;;;;;;7.70;6.20;;;;;;;;;;108286;1309;22541;-28
2022/08/16 05:50:00;;;;;;;7.60;6.80;;;;;;;;;;108311;1301;22338;-24
2022/08/16 05:52:26;;;;;;;6.40;5.80;;;;;;;;;;108284;1301;23259;-24
2022/08/16 05:54:52;;;;;;;6.90;6.30;;;;;;;;;;108229;1301;22540;-28
2022/08/16 05:57:18;;;;;;;7.70;6.00;;;;;;;;;;108236;1301;23144;-28
2022/08/16 05:59:46;;;;;;;7.90;6.40;;;;;;;;;;108316;1302;23209;-28
2022/08/16 06:02:11;;;;;;;6.70;6.10;;;;;;;;;;108303;1301;22550;-28
2022/08/16 06:04:37;;;;;;;10.90;5.10;;;;;;;;;;108293;1302;22406;-24
2022/08/16 06:07:05;;;;;;;6.90;6.30;;;;;;;;;;108302;1302;22819;-24
2022/08/16 06:09:31;;;;;;;7.40;6.00;;;;;;;;;;108255;1302;22534;-25
2022/08/16 06:12:00;;;;;;;9.80;7.80;;;;;;;;;;108308;1301;23029;-28
2022/08/16 06:14:26;;;;;;;7.40;6.60;;;;;;;;;;108265;1309;23222;-28
2022/08/16 06:16:52;;;;;;;10.70;7.10;;;;;;;;;;108316;1302;22542;-24
2022/08/16 06:19:17;;;;;;;6.70;4.40;;;;;;;;;;108260;1302;23144;-26
2022/08/16 06:21:43;;;;;;;8.60;7.40;;;;;;;;;;108269;1302;23147;-28
2022/08/16 06:24:08;;;;;;;7.70;6.60;;;;;;;;;;107730;1301;761244;-28
2022/08/16 06:26:34;;;;;;;6.60;5.40;;;;;;;;;;108199;1302;22530;-28
2022/08/16 06:28:59;;;;;;;6.00;5.40;;;;;;;;;;108263;1305;22390;-28
2022/08/16 06:31:25;;;;;;;7.30;6.40;;;;;;;;;;108298;1286;25223;-25
2022/08/16 06:33:51;;;;;;;7.40;6.30;;;;;;;;;;108208;1302;23366;-24
2022/08/16 06:36:17;;;;;;;7.50;5.50;;;;;;;;;;108177;1303;23178;-24
2022/08/16 06:38:42;;;;;;;8.40;6.60;;;;;;;;;;108271;1301;23173;-28
2022/08/16 06:41:08;;;;;;;6.90;6.20;;;;;;;;;;108240;1308;23259;-28
2022/08/16 06:43:34;;;;;;;6.60;6.00;;;;;;;;;;108147;1304;22599;-24
2022/08/16 06:46:00;;;;;;;7.10;6.40;;;;;;;;;;108288;1301;22538;-28
2022/08/16 06:48:25;;;;;;;6.60;6.00;;;;;;;;;;108152;1304;23089;-28
2022/08/16 06:50:51;;;;;;;4.90;4.50;;;;;;;;;;108295;1301;22535;-25
2022/08/16 06:53:17;;;;;;;5.10;4.60;;;;;;;;;;108260;1302;23142;-28
2022/08/16 06:55:43;;;;;;;5.50;4.90;;;;;;;;;;108321;1301;22566;-25
2022/08/16 06:58:09;;;;;;;7.00;5.90;;;;;;;;;;108314;1286;23248;-28
2022/08/16 07:00:34;;;;;;;7.00;4.80;;;;;;;;;;108313;1295;22568;-28
2022/08/16 07:03:00;;;;;;;5.80;4.80;;;;;;;;;;107731;1305;22537;-24
2022/08/16 07:05:25;;;;;;;4.30;3.70;;;;;;;;;;108226;1308;23303;-28
2022/08/16 07:07:51;;;;;;;4.20;3.80;;;;;;;;;;108051;1301;23289;-24
2022/08/16 07:10:17;;;;;;;5.30;4.50;;;;;;;;;;108294;1301;22535;-28
2022/08/16 07:12:43;;;;;;;6.30;4.80;;;;;;;;;;107884;1308;22537;-28
2022/08/16 07:15:08;;;;;;;6.70;4.70;;;;;;;;;;108197;1302;23472;-25
2022/08/16 07:17:35;;;;;;;5.70;5.00;;;;;;;;;;107841;1301;23225;-25
2022/08/16 07:20:01;;;;;;;4.80;4.00;;;;;;;;;;108331;1301;22331;-25
2022/08/16 07:22:26;;;;;;;4.00;3.50;;;;;;;;;;108270;1289;22723;-24
2022/08/16 07:24:52;;;;;;;5.40;4.60;;;;;;;;;;108289;1308;22581;-24
2022/08/16 07:27:17;;;;;;;5.10;4.50;;;;;;;;;;107847;1308;23311;-28
2022/08/16 07:29:43;;;;;;;3.90;3.40;;;;;;;;;;108240;1302;23207;-28
2022/08/16 07:32:08;;;;;;;5.50;4.20;;;;;;;;;;108021;1301;23791;-28
2022/08/16 07:34:34;;;;;;;5.70;4.90;;;;;;;;;;108184;1302;22560;-28
2022/08/16 07:37:00;;;;;;;10.60;4.20;;;;;;;;;;108208;1302;22533;-25
2022/08/16 07:39:25;;;;;;;5.10;4.60;;;;;;;;;;108163;1308;25194;-28
2022/08/16 07:41:51;;;;;;;4.90;4.50;;;;;;;;;;108223;1301;22601;-25
2022/08/16 07:44:16;;;;;;;5.40;4.90;;;;;;;;;;108262;1302;23201;-24
2022/08/16 07:46:42;;;;;;;3.40;3.10;;;;;;;;;;108147;1302;23161;-25
2022/08/16 07:49:07;;;;;;;2.50;2.30;;;;;;;;;;108165;1302;22584;-29
2022/08/16 07:51:35;;;;;;;3.70;3.20;;;;;;;;;;108131;1302;22369;-25
2022/08/16 07:54:01;;;;;;;4.50;3.80;;;;;;;;;;108275;1302;23142;-29
2022/08/16 07:56:27;;;;;;;4.70;3.90;;;;;;;;;;108281;1301;23263;-29
2022/08/16 07:58:53;;;;;;;5.50;3.00;;;;;;;;;;107927;1302;23496;-25
2022/08/16 08:01:19;;;;;;;8.40;3.90;;;;;;;;;;108306;1302;23009;-29
2022/08/16 08:03:44;;;;;;;21.20;4.40;;;;;;;;;;108170;1301;22645;-25
2022/08/16 08:06:10;;;;;;;4.90;4.20;;;;;;;;;;108265;1302;22541;-29
2022/08/16 08:08:36;;;;;;;5.00;3.40;;;;;;;;;;108306;1301;23154;-28
2022/08/16 08:11:01;;;;;;;4.40;4.00;;;;;;;;;;108247;1302;22563;-27
2022/08/16 08:13:29;;;;;;;4.60;3.80;;;;;;;;;;108173;1303;23178;-26
2022/08/16 08:15:55;;;;;;;4.20;3.80;;;;;;;;;;107917;1304;22541;-25
2022/08/16 08:18:21;;;;;;;4.40;2.80;;;;;;;;;;107928;1309;22600;-29
2022/08/16 08:20:47;;;;;;;3.60;3.30;;;;;;;;;;108284;1308;23283;-25
2022/08/16 08:23:13;;;;;;;4.40;3.90;;;;;;;;;;108279;1302;22528;-25
2022/08/16 08:25:39;;;;;;;4.70;4.30;;;;;;;;;;108235;1302;22517;-25
2022/08/16 08:28:05;;;;;;;4.30;4.00;;;;;;;;;;108238;1302;23213;-25
2022/08/16 08:30:31;;;;;;;3.70;3.00;;;;;;;;;;108245;1302;22526;-25
2022/08/16 08:32:56;;;;;;;4.00;3.50;;;;;;;;;;107928;1302;23308;-25
2022/08/16 08:35:22;;;;;;;3.70;3.40;;;;;;;;;;108302;1301;22456;-29
2022/08/16 08:37:47;;;;;;;4.90;3.30;;;;;;;;;;108265;1302;22526;-29
2022/08/16 08:40:13;;;;;;;2.70;2.50;;;;;;;;;;107966;1308;23320;-25
2022/08/16 08:42:42;;;;;;;3.70;3.20;;;;;;;;;;108279;1302;23219;-29
2022/08/16 08:45:08;;;;;;;4.50;3.40;;;;;;;;;;108279;1302;22625;-29
2022/08/16 08:47:34;;;;;;;3.50;3.10;;;;;;;;;;108174;1301;25261;-25
2022/08/16 08:50:00;;;;;;;2.70;2.40;;;;;;;;;;108217;1302;23268;-29
2022/08/16 08:52:25;;;;;;;3.60;3.20;;;;;;;;;;108297;1302;22098;-25
2022/08/16 08:54:51;;;;;;;7.00;3.20;;;;;;;;;;107949;1302;23212;-25
2022/08/16 08:57:17;;;;;;;4.10;3.60;;;;;;;;;;107999;1305;22442;-25
2022/08/16 08:59:44;;;;;;;2.60;2.30;;;;;;;;;;108292;1302;22523;-25
2022/08/16 09:02:11;;;;;;;5.50;3.80;;;;;;;;;;108326;1302;23235;-25
2022/08/16 09:04:36;;;;;;;3.80;3.40;;;;;;;;;;108304;1302;23280;-29
2022/08/16 09:07:02;;;;;;;3.40;2.40;;;;;;;;;;108074;1302;22539;-28
2022/08/16 09:09:28;;;;;;;3.20;3.00;;;;;;;;;;107645;1304;23182;-25
2022/08/16 09:11:54;;;;;;;16.20;4.10;;;;;;;;;;108322;1302;23136;-25
2022/08/16 09:14:20;;;;;;;3.50;2.80;;;;;;;;;;108336;1302;22504;-24
2022/08/16 09:16:45;;;;;;;4.40;4.10;;;;;;;;;;108163;1303;23265;-29
2022/08/16 09:19:11;;;;;;;2.70;2.30;;;;;;;;;;108108;1309;22345;-25
2022/08/16 09:21:36;;;;;;;3.30;3.00;;;;;;;;;;108265;1302;22551;-25
2022/08/16 09:24:03;;;;;;;10.10;3.90;;;;;;;;;;108195;1288;23193;-28
2022/08/16 09:26:28;;;;;;;4.10;3.70;;;;;;;;;;108011;1301;22621;-29
2022/08/16 09:28:53;;;;;;;3.60;3.30;;;;;;;;;;108296;1302;23139;-29
2022/08/16 09:31:19;;;;;;;3.80;3.50;;;;;;;;;;108328;1301;22432;-24
2022/08/16 09:33:45;;;;;;;3.20;2.90;;;;;;;;;;108300;1301;22647;-29
2022/08/16 09:36:11;;;;;;;3.20;2.80;;;;;;;;;;108068;1309;23301;-28
2022/08/16 09:38:38;;;;;;;4.30;2.50;;;;;;;;;;108280;1302;22559;-26
2022/08/16 09:41:04;;;;;;;2.80;2.50;;;;;;;;;;108165;1301;22521;-25
2022/08/16 09:43:30;;;;;;;6.60;2.70;;;;;;;;;;107894;1305;23164;-28
2022/08/16 09:45:56;;;;;;;3.40;2.70;;;;;;;;;;108269;1302;23633;-24
2022/08/16 09:48:21;;;;;;;2.40;1.90;;;;;;;;;;108262;1302;22462;-24
2022/08/16 09:50:47;;;;;;;3.30;2.90;;;;;;;;;;108317;1301;23088;-24
2022/08/16 09:53:13;;;;;;;4.60;4.10;;;;;;;;;;108229;1302;22929;-26
2022/08/16 09:55:39;;;;;;;8.00;3.20;;;;;;;;;;107920;1302;25286;-28
2022/08/16 09:58:04;;;;;;;3.50;3.10;;;;;;;;;;107719;1309;22536;-29
2022/08/16 10:00:30;;;;;;;3.10;2.60;;;;;;;;;;107965;1309;22544;-28
2022/08/16 10:02:57;;;;;;;3.00;2.80;;;;;;;;;;108261;1301;23146;-29
2022/08/16 10:05:22;;;;;;;3.80;3.50;;;;;;;;;;108291;1302;22520;-24
2022/08/16 10:07:51;;;;;;;5.40;3.60;;;;;;;;;;108257;1302;22514;-28
2022/08/16 10:10:18;;;;;;;3.50;3.20;;;;;;;;;;108224;1302;22470;-24
2022/08/16 10:15:15;;;;;;;3.90;3.60;;;;;;;;;;108123;1309;22502;-28
2022/08/16 10:17:41;;;;;;;3.50;3.30;;;;;;;;;;108184;1303;23227;-24
2022/08/16 10:20:10;;;;;;;6.10;3.20;;;;;;;;;;108273;1309;22416;-27
2022/08/16 10:22:36;;;;;;;3.90;3.50;;;;;;;;;;108224;1302;23264;-26
2022/08/16 10:25:03;;;;;;;2.80;2.60;;;;;;;;;;108230;1302;22523;-28
2022/08/16 10:27:28;;;;;;;11.40;3.00;;;;;;;;;;108221;1301;23371;-28
2022/08/16 10:29:54;;;;;;;4.40;3.70;;;;;;;;;;108150;1302;23184;-29
2022/08/16 10:32:19;;;;;;;2.70;2.50;;;;;;;;;;108293;1301;23285;-24
2022/08/16 10:34:45;;;;;;;4.20;3.60;;;;;;;;;;108300;1301;22531;-24
2022/08/16 10:37:11;;;;;;;4.30;3.70;;;;;;;;;;108261;1301;22520;-29
2022/08/16 10:39:38;;;;;;;3.60;3.10;;;;;;;;;;108301;1309;22534;-25
2022/08/16 10:42:05;;;;;;;3.80;2.80;;;;;;;;;;108304;1301;23370;-28
2022/08/16 10:44:31;;;;;;;5.10;3.80;;;;;;;;;;107766;1292;22510;-24
2022/08/16 10:46:56;;;;;;;3.20;2.90;;;;;;;;;;108180;1305;23175;-24
2022/08/16 10:49:22;;;;;;;4.30;3.80;;;;;;;;;;108202;1303;23859;-28
2022/08/16 10:51:47;;;;;;;3.70;3.00;;;;;;;;;;108231;1302;22430;-24
2022/08/16 10:54:13;;;;;;;3.60;3.30;;;;;;;;;;108250;1302;23100;-29
2022/08/16 10:56:39;;;;;;;2.70;2.30;;;;;;;;;;108273;1302;23216;-24
2022/08/16 10:59:04;;;;;;;4.60;3.20;;;;;;;;;;108312;1301;22448;-24
2022/08/16 11:01:31;;;;;;;4.00;2.80;;;;;;;;;;108298;1302;23012;-28
2022/08/16 11:03:56;;;;;;;3.30;2.80;;;;;;;;;;108298;1302;23781;-28
2022/08/16 11:06:21;;;;;;;2.30;2.00;;;;;;;;;;108260;1301;22460;-29
2022/08/16 11:08:47;;;;;;;4.00;3.00;;;;;;;;;;108215;1302;22570;-28
2022/08/16 11:11:14;;;;;;;3.70;3.40;;;;;;;;;;107911;1305;23155;-25
2022/08/16 11:13:40;;;;;;;3.40;3.10;;;;;;;;;;108238;1306;22547;-24
2022/08/16 11:16:06;;;;;;;4.10;3.30;;;;;;;;;;108085;1304;22101;-24
2022/08/16 11:18:32;;;;;;;4.00;3.50;;;;;;;;;;108163;1290;23095;-25
2022/08/16 11:20:58;;;;;;;4.00;3.60;;;;;;;;;;108279;1303;23083;-28
2022/08/16 11:23:24;;;;;;;3.70;3.40;;;;;;;;;;108304;1301;23299;-28
2022/08/16 11:25:50;;;;;;;4.40;4.00;;;;;;;;;;108301;1308;23299;-25
2022/08/16 11:28:16;;;;;;;5.00;3.00;;;;;;;;;;108286;1308;22536;-28
2022/08/16 11:30:42;;;;;;;1.80;1.60;;;;;;;;;;108348;1302;23194;-29
2022/08/16 11:33:08;;;;;;;4.40;3.40;;;;;;;;;;108301;1308;22505;-29
2022/08/16 11:35:33;;;;;;;3.90;3.10;;;;;;;;;;108177;1305;22283;-28
2022/08/16 11:38:01;;;;;;;3.20;2.90;;;;;;;;;;108175;1301;22621;-28
2022/08/16 11:40:27;;;;;;;2.70;2.50;;;;;;;;;;107600;1308;25234;-24
2022/08/16 11:42:53;;;;;;;3.70;3.40;;;;;;;;;;107749;1308;25246;-28
2022/08/16 11:45:18;;;;;;;2.80;2.60;;;;;;;;;;108106;1302;23139;-28
2022/08/16 11:47:44;;;;;;;2.80;2.60;;;;;;;;;;107775;1308;23284;-24
2022/08/16 11:50:10;;;;;;;2.70;2.40;;;;;;;;;;108264;1302;23035;-26
2022/08/16 11:52:36;;;;;;;2.50;2.30;;;;;;;;;;108057;1307;22521;-24
2022/08/16 11:55:02;;;;;;;3.30;2.20;;;;;;;;;;107993;1302;22994;-28
2022/08/16 11:57:27;;;;;;;8.30;3.00;;;;;;;;;;108076;1299;23240;-28
2022/08/16 11:59:53;;;;;;;2.70;2.40;;;;;;;;;;108060;1302;23370;-28
2022/08/16 12:02:18;;;;;;;4.70;3.00;;;;;;;;;;108250;1302;23127;-28
2022/08/16 12:04:44;;;;;;;2.60;2.40;;;;;;;;;;108274;1302;23344;-24
2022/08/16 12:07:09;;;;;;;2.60;2.40;;;;;;;;;;108279;1308;22541;-28
2022/08/16 12:09:35;;;;;;;2.70;2.10;;;;;;;;;;108272;1302;23290;-28
2022/08/16 12:12:00;;;;;;;4.10;3.30;;;;;;;;;;108270;1302;22557;-28
2022/08/16 12:14:26;;;;;;;3.20;2.90;;;;;;;;;;108224;1308;22894;-24
2022/08/16 12:16:52;;;;;;;3.10;2.50;;;;;;;;;;108117;1304;23347;-24
2022/08/16 12:19:18;;;;;;;2.70;2.50;;;;;;;;;;108279;1301;22537;-24
2022/08/16 12:21:44;;;;;;;6.10;2.20;;;;;;;;;;108276;1308;22448;-24
2022/08/16 12:24:09;;;;;;;4.40;2.60;;;;;;;;;;108229;1302;22541;-24
2022/08/16 12:26:35;;;;;;;3.40;3.20;;;;;;;;;;108205;1309;22519;-28
2022/08/16 12:29:02;;;;;;;3.90;3.00;;;;;;;;;;107976;1302;22552;-24
2022/08/16 12:31:27;;;;;;;2.70;2.50;;;;;;;;;;108056;1308;23363;-28
2022/08/16 12:33:53;;;;;;;5.40;2.90;;;;;;;;;;108255;1308;23177;-28
2022/08/16 12:36:18;;;;;;;3.00;2.70;;;;;;;;;;108271;1301;23007;-28
2022/08/16 12:38:44;;;;;;;2.40;2.00;;;;;;;;;;108219;1305;22619;-27
2022/08/16 12:41:09;;;;;;;5.00;2.80;;;;;;;;;;108288;1302;23706;-28
2022/08/16 12:43:35;;;;;;;4.10;3.20;;;;;;;;;;108278;1302;22534;-24
2022/08/16 12:46:01;;;;;;;13.00;2.40;;;;;;;;;;107408;1305;22550;-28
2022/08/16 12:50:56;;;;;;;3.80;3.50;;;;;;;;;;108269;1302;23148;-24
2022/08/16 12:53:22;;;;;;;4.30;3.50;;;;;;;;;;108285;1302;23210;-27
2022/08/16 12:55:48;;;;;;;7.80;3.30;;;;;;;;;;108299;1301;22547;-24
2022/08/16 12:58:13;;;;;;;3.30;3.00;;;;;;;;;;108189;1309;25864;-24
2022/08/16 13:00:39;;;;;;;3.10;2.90;;;;;;;;;;108129;1302;22783;-28
2022/08/16 13:03:04;;;;;;;3.80;3.00;;;;;;;;;;108311;1301;22514;-29
2022/08/16 13:05:30;;;;;;;3.40;3.10;;;;;;;;;;108204;1301;22526;-28
2022/08/16 13:07:57;;;;;;;3.00;2.60;;;;;;;;;;108218;1302;23333;-24
2022/08/16 13:10:23;;;;;;;2.80;2.50;;;;;;;;;;108276;1302;23218;-24
2022/08/16 13:12:51;;;;;;;5.10;2.90;;;;;;;;;;108292;1305;23114;-24
2022/08/16 13:15:24;;;;;;;3.00;2.70;;;;;;;;;;108258;1308;22535;-28
2022/08/16 13:17:50;;;;;;;3.40;2.20;;;;;;;;;;108282;1302;25074;-24
2022/08/16 13:20:17;;;;;;;3.20;2.50;;;;;;;;;;108149;1309;22522;-26
2022/08/16 13:22:44;;;;;;;3.50;3.20;;;;;;;;;;108276;1302;23056;-24
2022/08/16 13:25:12;;;;;;;3.50;2.60;;;;;;;;;;108269;1302;22552;-28
2022/08/16 13:27:38;;;;;;;4.80;2.30;;;;;;;;;;108270;1302;22521;-28
2022/08/16 13:30:03;;;;;;;4.70;3.40;;;;;;;;;;107980;1302;23597;-28
2022/08/16 13:32:29;;;;;;;2.50;2.30;;;;;;;;;;107977;1304;23228;-28
2022/08/16 13:34:54;;;;;;;2.50;2.30;;;;;;;;;;108279;1302;23279;-29
2022/08/16 13:37:20;;;;;;;3.00;2.50;;;;;;;;;;108307;1301;22500;-28
2022/08/16 13:39:45;;;;;;;2.70;2.60;;;;;;;;;;108265;1302;23187;-28
2022/08/16 13:42:11;;;;;;;4.90;2.30;;;;;;;;;;108267;1308;22537;-25
2022/08/16 13:44:36;;;;;;;2.90;2.80;;;;;;;;;;108294;1302;23186;-25
2022/08/16 13:47:02;;;;;;;3.90;2.70;;;;;;;;;;108275;1302;22569;-25
2022/08/16 13:49:28;;;;;;;10.70;2.80;;;;;;;;;;108224;1301;23211;-24
2022/08/16 13:51:53;;;;;;;4.70;2.80;;;;;;;;;;108236;1302;23279;-28
2022/08/16 13:54:19;;;;;;;2.80;2.60;;;;;;;;;;108175;1303;23304;-30
2022/08/16 13:56:44;;;;;;;5.20;2.90;;;;;;;;;;108195;1302;22552;-28
2022/08/16 13:59:12;;;;;;;7.70;2.90;;;;;;;;;;108296;1301;22738;-24
2022/08/16 14:01:38;;;;;;;2.20;2.00;;;;;;;;;;108317;1302;22448;-28
2022/08/16 14:04:04;;;;;;;2.40;2.20;;;;;;;;;;108286;1302;22670;-24
2022/08/16 14:06:30;;;;;;;1.90;1.70;;;;;;;;;;108258;1302;23181;-24
2022/08/16 14:08:55;;;;;;;2.00;1.90;;;;;;;;;;108252;1302;22512;-30
2022/08/16 14:11:21;;;;;;;2.00;1.80;;;;;;;;;;108267;1302;23390;-28
2022/08/16 14:13:46;;;;;;;8.50;1.70;;;;;;;;;;108279;1309;23204;-24
2022/08/16 14:16:12;;;;;;;4.20;1.90;;;;;;;;;;108270;1301;23185;-28
2022/08/16 14:18:38;;;;;;;3.00;1.40;;;;;;;;;;108281;1302;23395;-24
2022/08/16 14:21:04;;;;;;;2.30;2.10;;;;;;;;;;108134;1309;23256;-28